Govans, Maryland
Current Conditions -  °F | °C
As of 2:55 PM on Thursday 29 Jan 2015 (Local Time) from KMTN Reporting Station
Overcast Overcast  
Wind Chill: 26°   Ceiling: 10000
Heat Index: 34°   Visibility: 10mi
Dew Point: 19°   Wind: 9mph
Humidity: 56%   Direction: 130°SE
Pressure: 30.17"   Gusts: NA
Location:  39.3674°N, 76.6149°W
Report Text: KMTN 291955Z 13008KT 10SM OVC100 01/M07 A3017
Loading
Personal Weather Stations






























Interactive Weather Map New forecast layout! Learn more

10-Day Weather Forecast

Advertisements
Track Severe Weather on mobile